createdAt,value
2019-01-10T00:00:11.089Z,2.90
2019-01-10T00:01:11.103Z,2.40
2019-01-10T00:02:11.190Z,2.80
2019-01-10T00:03:11.057Z,2.90
2019-01-10T00:04:11.034Z,2.90
2019-01-10T00:05:11.024Z,2.50
2019-01-10T00:06:11.073Z,2.80
2019-01-10T00:07:11.032Z,2.60
2019-01-10T00:08:10.997Z,2.90
2019-01-10T00:09:11.049Z,2.70
2019-01-10T00:10:10.975Z,2.40
2019-01-10T00:11:10.979Z,2.50
2019-01-10T00:12:11.102Z,2.90
2019-01-10T00:13:10.961Z,2.70
2019-01-10T00:14:10.945Z,3.00
2019-01-10T00:15:10.917Z,3.00
2019-01-10T00:16:10.918Z,2.90
2019-01-10T00:17:10.904Z,3.20
2019-01-10T00:18:10.921Z,3.00
2019-01-10T00:19:10.882Z,2.50
2019-01-10T00:20:10.878Z,3.00
2019-01-10T00:21:10.926Z,2.70
2019-01-10T00:22:10.880Z,2.90
2019-01-10T00:23:10.865Z,3.00
2019-01-10T00:24:10.915Z,3.30
2019-01-10T00:25:10.820Z,2.80
2019-01-10T00:26:10.805Z,3.20
2019-01-10T00:27:10.940Z,3.60
2019-01-10T00:28:10.812Z,2.80
2019-01-10T00:29:10.800Z,3.10
2019-01-10T00:30:10.767Z,3.00
2019-01-10T00:31:10.787Z,3.20
2019-01-10T00:32:10.758Z,3.40
2019-01-10T00:33:10.739Z,3.10
2019-01-10T00:34:10.806Z,3.40
2019-01-10T00:35:10.721Z,3.30
2019-01-10T00:36:10.695Z,3.10
2019-01-10T00:37:10.855Z,3.20
2019-01-10T00:38:10.673Z,3.20
2019-01-10T00:39:10.743Z,3.50
2019-01-10T00:40:10.655Z,3.10
2019-01-10T00:41:10.770Z,3.20
2019-01-10T00:42:10.644Z,3.00
2019-01-10T00:43:10.619Z,3.10
2019-01-10T00:44:10.657Z,2.90
2019-01-10T00:45:10.617Z,3.10
2019-01-10T00:46:10.608Z,3.30
2019-01-10T00:47:10.603Z,3.10
2019-01-10T00:48:10.568Z,3.20
2019-01-10T00:49:10.803Z,3.10
2019-01-10T00:50:10.550Z,2.70
2019-01-10T00:51:10.547Z,2.90
2019-01-10T00:52:10.530Z,3.70
2019-01-10T00:53:10.550Z,3.10
2019-01-10T00:54:10.541Z,3.20
2019-01-10T00:55:10.494Z,2.90
2019-01-10T00:56:10.508Z,3.20
2019-01-10T00:57:10.479Z,3.30
2019-01-10T00:58:10.466Z,2.90
2019-01-10T00:59:10.480Z,2.70
2019-01-10T01:00:10.475Z,3.10
2019-01-10T01:01:10.431Z,3.00
2019-01-10T01:02:10.423Z,3.00
2019-01-10T01:03:10.463Z,2.70
2019-01-10T01:04:10.435Z,2.60
2019-01-10T01:05:10.393Z,3.00
2019-01-10T01:06:10.430Z,2.80
2019-01-10T01:07:10.369Z,3.10
2019-01-10T01:08:10.362Z,3.20
2019-01-10T01:09:10.414Z,3.20
2019-01-10T01:10:10.375Z,3.10
2019-01-10T01:11:10.325Z,3.50
2019-01-10T01:12:10.322Z,3.10
2019-01-10T01:13:10.353Z,3.20
2019-01-10T01:14:10.301Z,2.70
2019-01-10T01:15:10.284Z,2.80
2019-01-10T01:16:10.345Z,3.10
2019-01-10T01:17:10.261Z,3.40
2019-01-10T01:18:10.260Z,3.10
2019-01-10T01:19:10.451Z,3.20
2019-01-10T01:20:10.229Z,3.20
2019-01-10T01:21:10.248Z,3.20
2019-01-10T01:22:10.233Z,3.50
2019-01-10T01:23:10.213Z,3.00
2019-01-10T01:24:10.189Z,3.20
2019-01-10T01:25:10.179Z,3.10
2019-01-10T01:26:10.233Z,3.30
2019-01-10T01:27:10.297Z,3.60
2019-01-10T01:28:10.159Z,3.10
2019-01-10T01:29:10.226Z,3.10
2019-01-10T01:30:10.127Z,2.90
2019-01-10T01:31:10.357Z,3.00
2019-01-10T01:32:10.112Z,3.20
2019-01-10T01:33:10.301Z,3.00
2019-01-10T01:34:10.095Z,3.10
2019-01-10T01:35:10.256Z,3.00
2019-01-10T01:36:10.092Z,3.30
2019-01-10T01:37:10.051Z,3.30
2019-01-10T01:38:10.037Z,3.30
2019-01-10T01:39:10.047Z,3.40
2019-01-10T01:40:10.023Z,3.20
2019-01-10T01:41:10.006Z,3.40
2019-01-10T01:42:10.031Z,3.20
2019-01-10T01:43:10.034Z,3.20
2019-01-10T01:44:09.980Z,3.20
2019-01-10T01:45:09.963Z,3.30
2019-01-10T01:46:09.958Z,3.40
2019-01-10T01:47:09.999Z,3.40
2019-01-10T01:48:10.030Z,3.20
2019-01-10T01:49:09.922Z,3.30
2019-01-10T01:50:09.917Z,3.30
2019-01-10T01:51:09.917Z,3.30
2019-01-10T01:52:09.920Z,3.50
2019-01-10T01:53:09.898Z,3.60
2019-01-10T01:54:09.874Z,3.50
2019-01-10T01:55:09.901Z,3.40
2019-01-10T01:56:09.854Z,3.50
2019-01-10T01:57:09.867Z,3.40
2019-01-10T01:58:09.830Z,3.50
2019-01-10T01:59:09.819Z,3.60
2019-01-10T02:00:09.812Z,3.90
2019-01-10T02:01:09.815Z,3.70
2019-01-10T02:02:09.826Z,3.80
2019-01-10T02:03:09.778Z,3.80
2019-01-10T02:04:09.777Z,3.40
2019-01-10T02:05:09.767Z,3.60
2019-01-10T02:06:09.750Z,3.60
2019-01-10T02:07:09.855Z,3.50
2019-01-10T02:08:09.747Z,3.40
2019-01-10T02:09:09.712Z,3.40
2019-01-10T02:10:09.705Z,3.40
2019-01-10T02:11:09.696Z,3.10
2019-01-10T02:12:09.686Z,3.40
2019-01-10T02:13:16.517Z,3.40
2019-01-10T02:14:10.660Z,3.40
2019-01-10T02:15:09.796Z,3.60
2019-01-10T02:16:09.639Z,3.10
2019-01-10T02:17:09.636Z,3.30
2019-01-10T02:18:09.663Z,3.30
2019-01-10T02:19:09.609Z,3.40
2019-01-10T02:20:09.596Z,3.60
2019-01-10T02:21:09.614Z,3.40
2019-01-10T02:22:09.582Z,3.50
2019-01-10T02:23:09.596Z,3.40
2019-01-10T02:24:09.558Z,3.80
2019-01-10T02:25:09.545Z,3.30
2019-01-10T02:26:09.567Z,3.20
2019-01-10T02:27:09.536Z,3.40
2019-01-10T02:28:09.574Z,3.40
2019-01-10T02:29:09.503Z,3.50
2019-01-10T02:30:09.495Z,3.30
2019-01-10T02:31:09.485Z,3.60
2019-01-10T02:32:09.480Z,3.30
2019-01-10T02:33:09.585Z,3.70
2019-01-10T02:34:09.509Z,3.40
2019-01-10T02:35:09.455Z,3.40
2019-01-10T02:36:09.433Z,3.60
2019-01-10T02:37:09.493Z,3.50
2019-01-10T02:38:09.451Z,3.50
2019-01-10T02:39:09.441Z,3.80
2019-01-10T02:40:09.397Z,3.10
2019-01-10T02:41:09.377Z,3.40
2019-01-10T02:42:09.367Z,3.60
2019-01-10T02:43:09.375Z,3.70
2019-01-10T02:44:09.388Z,3.70
2019-01-10T02:45:09.457Z,3.30
2019-01-10T02:46:09.448Z,3.70
2019-01-10T02:47:09.319Z,3.30
2019-01-10T02:48:09.362Z,3.50
2019-01-10T02:49:09.301Z,3.70
2019-01-10T02:50:09.314Z,3.90
2019-01-10T02:51:09.279Z,3.20
2019-01-10T02:52:09.300Z,3.80
2019-01-10T02:53:09.318Z,3.80
2019-01-10T02:54:09.247Z,3.60
2019-01-10T02:55:09.323Z,3.80
2019-01-10T02:56:09.291Z,3.50
2019-01-10T02:57:09.213Z,3.90
2019-01-10T02:58:09.214Z,3.70
2019-01-10T02:59:09.195Z,3.90
2019-01-10T03:00:09.239Z,3.60
2019-01-10T03:01:09.341Z,3.70
2019-01-10T03:02:09.208Z,3.90
2019-01-10T03:03:09.190Z,3.10
2019-01-10T03:04:09.241Z,3.60
2019-01-10T03:05:09.169Z,3.90
2019-01-10T03:06:09.122Z,3.50
2019-01-10T03:07:09.110Z,3.90
2019-01-10T03:08:09.191Z,3.60
2019-01-10T03:09:09.087Z,3.50
2019-01-10T03:10:09.204Z,3.50
2019-01-10T03:11:09.105Z,3.90
2019-01-10T03:12:09.090Z,3.60
2019-01-10T03:13:09.117Z,3.80
2019-01-10T03:14:09.062Z,3.50
2019-01-10T03:15:09.031Z,3.90
2019-01-10T03:16:09.051Z,3.70
2019-01-10T03:17:09.174Z,3.80
2019-01-10T03:18:09.005Z,3.70
2019-01-10T03:19:08.983Z,3.70
2019-01-10T03:20:08.977Z,3.80
2019-01-10T03:21:09.004Z,3.80
2019-01-10T03:22:08.962Z,3.90
2019-01-10T03:23:09.060Z,3.60
2019-01-10T03:24:08.982Z,3.60
2019-01-10T03:25:08.921Z,3.80
2019-01-10T03:26:08.942Z,3.80
2019-01-10T03:27:08.989Z,4.10
2019-01-10T03:28:08.902Z,4.00
2019-01-10T03:29:08.922Z,4.20
2019-01-10T03:30:08.868Z,4.30
2019-01-10T03:31:08.887Z,4.10
2019-01-10T03:32:08.976Z,3.90
2019-01-10T03:33:08.873Z,4.40
2019-01-10T03:34:08.840Z,4.00
2019-01-10T03:35:08.851Z,3.90
2019-01-10T03:36:08.822Z,4.10
2019-01-10T03:37:08.819Z,4.30
2019-01-10T03:38:08.777Z,4.10
2019-01-10T03:39:08.800Z,4.10
2019-01-10T03:40:08.761Z,4.40
2019-01-10T03:41:08.751Z,4.50
2019-01-10T03:42:08.764Z,4.30
2019-01-10T03:43:08.733Z,4.50
2019-01-10T03:44:08.751Z,4.40
2019-01-10T03:45:08.705Z,4.40
2019-01-10T03:46:08.700Z,4.40
2019-01-10T03:47:08.760Z,4.30
2019-01-10T03:48:08.683Z,4.60
2019-01-10T03:49:08.688Z,4.70
2019-01-10T03:50:08.651Z,4.30
2019-01-10T03:51:08.653Z,4.40
2019-01-10T03:52:08.748Z,4.40
2019-01-10T03:53:08.713Z,4.70
2019-01-10T03:54:08.608Z,4.50
2019-01-10T03:55:08.611Z,4.60
2019-01-10T03:56:08.629Z,4.90
2019-01-10T03:57:08.677Z,4.90
2019-01-10T03:58:08.611Z,4.50
2019-01-10T03:59:08.613Z,4.80
2019-01-10T04:00:08.596Z,4.80
2019-01-10T04:01:08.640Z,10.30
2019-01-10T04:02:08.574Z,7.70
2019-01-10T04:03:08.572Z,5.90
2019-01-10T04:04:08.507Z,4.80
2019-01-10T04:05:08.496Z,5.10
2019-01-10T04:06:08.628Z,4.40
2019-01-10T04:07:08.562Z,4.80
2019-01-10T04:08:08.478Z,4.60
2019-01-10T04:09:08.549Z,4.60
2019-01-10T04:10:08.447Z,4.80
2019-01-10T04:11:08.435Z,4.70
2019-01-10T04:12:08.442Z,4.30
2019-01-10T04:13:08.438Z,5.00
2019-01-10T04:14:08.414Z,4.70
2019-01-10T04:15:08.428Z,4.80
2019-01-10T04:16:08.388Z,5.00
2019-01-10T04:17:08.379Z,4.90
2019-01-10T04:18:08.515Z,4.80
2019-01-10T04:19:08.359Z,5.10
2019-01-10T04:20:08.432Z,5.00
2019-01-10T04:21:17.079Z,4.70
2019-01-10T04:22:09.315Z,4.80
2019-01-10T04:23:08.446Z,4.90
2019-01-10T04:24:08.302Z,4.80
2019-01-10T04:25:08.294Z,4.70
2019-01-10T04:26:08.282Z,4.50
2019-01-10T04:27:08.292Z,4.40
2019-01-10T04:28:08.295Z,4.70
2019-01-10T04:29:08.321Z,4.40
2019-01-10T04:30:08.238Z,4.90
2019-01-10T04:31:08.226Z,5.00
2019-01-10T04:32:08.215Z,4.50
2019-01-10T04:33:08.222Z,4.40
2019-01-10T04:34:08.239Z,5.00
2019-01-10T04:35:08.233Z,4.40
2019-01-10T04:36:08.172Z,4.50
2019-01-10T04:37:08.222Z,5.00
2019-01-10T04:38:08.154Z,4.80
2019-01-10T04:39:08.170Z,4.50
2019-01-10T04:40:08.151Z,4.80
2019-01-10T04:41:08.156Z,4.70
2019-01-10T04:42:08.193Z,4.80
2019-01-10T04:43:08.144Z,4.50
2019-01-10T04:44:08.158Z,5.00
2019-01-10T04:45:08.081Z,4.50
2019-01-10T04:46:08.078Z,4.80
2019-01-10T04:47:08.066Z,4.70
2019-01-10T04:48:08.071Z,4.60
2019-01-10T04:49:08.038Z,4.60
2019-01-10T04:50:08.065Z,5.20
2019-01-10T04:51:08.014Z,4.30
2019-01-10T04:52:09.318Z,4.80
2019-01-10T04:53:08.119Z,4.80
2019-01-10T04:54:07.998Z,4.70
2019-01-10T04:55:08.010Z,4.80
2019-01-10T04:56:07.967Z,4.70
2019-01-10T04:57:07.962Z,4.70
2019-01-10T04:58:08.035Z,5.20
2019-01-10T04:59:07.962Z,4.70
2019-01-10T05:00:07.943Z,5.10
2019-01-10T05:01:07.954Z,4.80
2019-01-10T05:02:18.142Z,4.60
2019-01-10T05:03:08.967Z,5.00
2019-01-10T05:04:07.916Z,4.60
2019-01-10T05:05:07.972Z,4.50
2019-01-10T05:06:07.899Z,5.30
2019-01-10T05:07:07.906Z,5.00
2019-01-10T05:08:07.883Z,4.80
2019-01-10T05:09:07.978Z,5.00
2019-01-10T05:10:07.957Z,4.80
2019-01-10T05:11:07.837Z,4.80
2019-01-10T05:12:07.952Z,4.80
2019-01-10T05:13:07.783Z,4.90
2019-01-10T05:14:16.149Z,5.30
2019-01-10T05:15:08.776Z,4.90
2019-01-10T05:16:07.880Z,5.20
2019-01-10T05:17:07.744Z,5.60
2019-01-10T05:18:08.213Z,4.90
2019-01-10T05:19:07.723Z,4.80
2019-01-10T05:20:07.713Z,4.50
2019-01-10T05:21:07.878Z,5.00
2019-01-10T05:22:07.733Z,5.30
2019-01-10T05:23:07.693Z,4.70
2019-01-10T05:24:07.685Z,4.90
2019-01-10T05:25:07.662Z,4.90
2019-01-10T05:26:07.711Z,5.30
2019-01-10T05:27:07.711Z,4.90
2019-01-10T05:28:07.635Z,5.10
2019-01-10T05:29:07.634Z,4.70
2019-01-10T05:30:07.612Z,4.90
2019-01-10T05:31:07.657Z,4.80
2019-01-10T05:32:07.615Z,4.60
2019-01-10T05:33:07.592Z,4.80
2019-01-10T05:34:07.570Z,4.90
2019-01-10T05:35:07.594Z,4.50
2019-01-10T05:36:07.548Z,4.80
2019-01-10T05:37:07.566Z,4.60
2019-01-10T05:38:07.533Z,4.60
2019-01-10T05:39:07.577Z,4.30
2019-01-10T05:40:07.549Z,4.70
2019-01-10T05:41:07.506Z,4.50
2019-01-10T05:42:07.499Z,4.40
2019-01-10T05:43:07.552Z,4.60
2019-01-10T05:44:07.475Z,4.50
2019-01-10T05:45:07.468Z,4.30
2019-01-10T05:46:07.479Z,4.60
2019-01-10T05:47:07.440Z,4.20
2019-01-10T05:48:07.526Z,4.00
2019-01-10T05:49:07.418Z,4.50
2019-01-10T05:50:07.477Z,4.70
2019-01-10T05:51:07.444Z,4.50
2019-01-10T05:52:07.410Z,4.50
2019-01-10T05:53:07.400Z,4.40
2019-01-10T05:54:07.361Z,4.80
2019-01-10T05:55:07.351Z,4.60
2019-01-10T05:56:15.389Z,4.60
2019-01-10T05:57:08.461Z,4.90
2019-01-10T05:58:07.331Z,4.40
2019-01-10T05:59:07.412Z,4.50
2019-01-10T06:00:07.387Z,4.50
2019-01-10T06:01:07.434Z,4.30
2019-01-10T06:02:07.274Z,4.20
2019-01-10T06:03:07.266Z,4.30
2019-01-10T06:04:07.279Z,4.40
2019-01-10T06:05:07.271Z,4.30
2019-01-10T06:06:07.242Z,3.90
2019-01-10T06:07:07.365Z,4.20
2019-01-10T06:08:07.216Z,4.50
2019-01-10T06:09:07.242Z,4.30
2019-01-10T06:10:07.199Z,4.20
2019-01-10T06:11:07.190Z,4.50
2019-01-10T06:12:07.176Z,4.60
2019-01-10T06:13:07.241Z,4.70
2019-01-10T06:14:07.181Z,4.30
2019-01-10T06:15:07.140Z,5.00
2019-01-10T06:16:07.173Z,4.50
2019-01-10T06:17:07.117Z,4.50
2019-01-10T06:18:07.107Z,4.90
2019-01-10T06:19:07.199Z,4.70
2019-01-10T06:20:07.094Z,4.50
2019-01-10T06:21:07.077Z,4.70
2019-01-10T06:22:07.102Z,5.50
2019-01-10T06:23:07.057Z,5.30
2019-01-10T06:24:07.084Z,5.20
2019-01-10T06:25:07.037Z,5.10
2019-01-10T06:26:07.025Z,5.10
2019-01-10T06:27:07.073Z,4.30
2019-01-10T06:28:07.042Z,4.70
2019-01-10T06:29:06.995Z,4.70
2019-01-10T06:30:07.136Z,4.90
2019-01-10T06:31:07.097Z,4.90
2019-01-10T06:32:06.963Z,5.30
2019-01-10T06:33:06.955Z,5.00
2019-01-10T06:34:06.983Z,4.90
2019-01-10T06:35:07.030Z,5.50
2019-01-10T06:36:06.983Z,4.80
2019-01-10T06:37:06.968Z,5.20
2019-01-10T06:38:06.895Z,5.60
2019-01-10T06:39:07.042Z,5.20
2019-01-10T06:40:06.994Z,5.20
2019-01-10T06:41:06.896Z,5.60
2019-01-10T06:42:06.849Z,5.40
2019-01-10T06:43:06.838Z,5.00
2019-01-10T06:44:09.206Z,5.40
2019-01-10T06:45:06.821Z,5.30
2019-01-10T06:46:06.909Z,5.60
2019-01-10T06:47:06.796Z,5.30
2019-01-10T06:48:06.815Z,5.10
2019-01-10T06:49:06.852Z,5.60
2019-01-10T06:50:06.770Z,4.90
2019-01-10T06:51:06.799Z,5.60
2019-01-10T06:52:06.790Z,5.40
2019-01-10T06:53:06.735Z,5.70
2019-01-10T06:54:06.730Z,5.70
2019-01-10T06:55:06.736Z,5.30
2019-01-10T06:56:06.725Z,5.50
2019-01-10T06:57:06.735Z,5.30
2019-01-10T06:58:06.694Z,5.30
2019-01-10T06:59:06.677Z,5.50
2019-01-10T07:00:06.712Z,5.40
2019-01-10T07:01:06.712Z,5.70
2019-01-10T07:02:07.089Z,6.10
2019-01-10T07:03:06.659Z,5.90
2019-01-10T07:04:06.651Z,5.60
2019-01-10T07:05:06.623Z,5.90
2019-01-10T07:06:06.609Z,5.60
2019-01-10T07:07:06.683Z,5.40
2019-01-10T07:08:06.578Z,5.70
2019-01-10T07:09:06.587Z,5.50
2019-01-10T07:10:06.672Z,5.70
2019-01-10T07:11:06.617Z,6.00
2019-01-10T07:12:07.868Z,6.20
2019-01-10T07:13:06.521Z,6.10
2019-01-10T07:14:06.531Z,6.10
2019-01-10T07:15:06.573Z,5.70
2019-01-10T07:16:06.560Z,6.20
2019-01-10T07:17:06.545Z,6.00
2019-01-10T07:18:06.528Z,6.40
2019-01-10T07:19:06.536Z,6.30
2019-01-10T07:20:06.595Z,6.70
2019-01-10T07:21:06.450Z,6.60
2019-01-10T07:22:06.423Z,6.20
2019-01-10T07:23:06.509Z,6.10
2019-01-10T07:24:06.402Z,6.40
2019-01-10T07:25:06.405Z,6.80
2019-01-10T07:26:06.391Z,6.40
2019-01-10T07:27:06.485Z,6.10
2019-01-10T07:28:06.500Z,6.40
2019-01-10T07:29:06.350Z,6.20
2019-01-10T07:30:06.379Z,5.50
2019-01-10T07:31:06.446Z,6.20
2019-01-10T07:32:06.489Z,6.40
2019-01-10T07:33:06.414Z,6.60
2019-01-10T07:34:06.299Z,6.40
2019-01-10T07:35:06.293Z,6.40
2019-01-10T07:36:06.332Z,6.40
2019-01-10T07:37:12.676Z,6.20
2019-01-10T07:38:07.346Z,6.10
2019-01-10T07:39:06.251Z,6.80
2019-01-10T07:40:06.290Z,6.90
2019-01-10T07:41:06.249Z,6.30
2019-01-10T07:42:06.250Z,6.90
2019-01-10T07:43:06.262Z,6.80
2019-01-10T07:44:06.275Z,6.80
2019-01-10T07:45:06.231Z,6.30
2019-01-10T07:46:06.201Z,7.10
2019-01-10T07:47:08.225Z,7.00
2019-01-10T07:48:06.203Z,6.50
2019-01-10T07:49:07.377Z,7.00
2019-01-10T07:50:06.137Z,6.90
2019-01-10T07:51:06.183Z,6.60
2019-01-10T07:52:06.117Z,7.10
2019-01-10T07:53:06.170Z,6.80
2019-01-10T07:54:06.129Z,6.80
2019-01-10T07:55:06.118Z,6.70
2019-01-10T07:56:06.096Z,7.50
2019-01-10T07:57:06.107Z,7.10
2019-01-10T07:58:06.052Z,6.90
2019-01-10T07:59:06.159Z,6.70
2019-01-10T08:00:06.098Z,6.90
2019-01-10T08:01:06.015Z,6.70
2019-01-10T08:02:06.020Z,6.80
2019-01-10T08:03:06.085Z,7.30
2019-01-10T08:04:06.011Z,7.30
2019-01-10T08:05:05.985Z,7.10
2019-01-10T08:06:05.974Z,7.00
2019-01-10T08:07:06.152Z,7.40
2019-01-10T08:08:06.070Z,7.70
2019-01-10T08:09:05.928Z,7.10
2019-01-10T08:10:06.068Z,6.60
2019-01-10T08:11:05.907Z,6.70
2019-01-10T08:12:05.896Z,6.70
2019-01-10T08:13:05.892Z,6.60
2019-01-10T08:14:06.062Z,6.80
2019-01-10T08:15:11.722Z,6.50
2019-01-10T08:16:06.954Z,6.70
2019-01-10T08:17:05.843Z,6.60
2019-01-10T08:18:05.883Z,6.40
2019-01-10T08:19:05.837Z,6.30
2019-01-10T08:20:05.845Z,6.30
2019-01-10T08:21:05.829Z,6.30
2019-01-10T08:22:05.850Z,7.00
2019-01-10T08:23:05.834Z,6.90
2019-01-10T08:24:05.879Z,7.10
2019-01-10T08:25:05.762Z,7.00
2019-01-10T08:26:05.817Z,7.50
2019-01-10T08:27:05.754Z,6.90
2019-01-10T08:28:05.745Z,6.50
2019-01-10T08:29:05.752Z,6.70
2019-01-10T08:30:05.711Z,6.80
2019-01-10T08:31:05.723Z,6.70
2019-01-10T08:32:05.685Z,6.70
2019-01-10T08:33:05.727Z,7.20
2019-01-10T08:34:05.734Z,7.40
2019-01-10T08:35:05.680Z,7.30
2019-01-10T08:36:05.699Z,7.10
2019-01-10T08:37:05.642Z,6.70
2019-01-10T08:38:05.662Z,6.60
2019-01-10T08:39:05.686Z,7.30
2019-01-10T08:40:05.648Z,7.30
2019-01-10T08:41:05.680Z,7.50
2019-01-10T08:42:05.583Z,7.20
2019-01-10T08:43:05.568Z,8.10
2019-01-10T08:44:05.609Z,6.70
2019-01-10T08:45:05.609Z,7.30
2019-01-10T08:46:05.577Z,7.60
2019-01-10T08:47:05.549Z,7.50
2019-01-10T08:48:05.529Z,7.10
2019-01-10T08:49:05.504Z,7.60
2019-01-10T08:50:05.659Z,7.40
2019-01-10T08:51:05.608Z,6.50
2019-01-10T08:52:05.496Z,6.30
2019-01-10T08:53:05.568Z,6.00
2019-01-10T08:54:05.544Z,6.60
2019-01-10T08:55:05.439Z,6.30
2019-01-10T08:56:05.433Z,6.40
2019-01-10T08:57:05.473Z,6.50
2019-01-10T08:58:05.508Z,7.00
2019-01-10T08:59:05.423Z,5.90
2019-01-10T09:00:05.401Z,6.80
2019-01-10T09:01:05.585Z,6.60
2019-01-10T09:02:05.384Z,6.80
2019-01-10T09:03:05.473Z,6.90
2019-01-10T09:04:05.345Z,6.40
2019-01-10T09:05:05.372Z,6.50
2019-01-10T09:06:08.219Z,6.60
2019-01-10T09:07:05.323Z,7.00
2019-01-10T09:08:05.343Z,6.20
2019-01-10T09:09:05.328Z,6.70
2019-01-10T09:10:05.335Z,7.20
2019-01-10T09:11:05.290Z,6.70
2019-01-10T09:12:05.278Z,7.20
2019-01-10T09:13:05.295Z,6.20
2019-01-10T09:14:05.269Z,6.50
2019-01-10T09:15:05.239Z,6.90
2019-01-10T09:16:05.227Z,7.40
2019-01-10T09:17:05.219Z,7.40
2019-01-10T09:18:05.200Z,7.00
2019-01-10T09:19:05.223Z,7.20
2019-01-10T09:20:05.169Z,6.90
2019-01-10T09:21:05.171Z,6.40
2019-01-10T09:22:05.310Z,6.50
2019-01-10T09:23:05.206Z,6.60
2019-01-10T09:24:05.221Z,6.90
2019-01-10T09:25:05.132Z,6.90
2019-01-10T09:26:05.255Z,6.80
2019-01-10T09:27:05.118Z,6.80
2019-01-10T09:28:05.094Z,7.10
2019-01-10T09:29:05.141Z,7.30
2019-01-10T09:30:05.077Z,6.90
2019-01-10T09:31:05.096Z,6.40
2019-01-10T09:32:05.093Z,7.10
2019-01-10T09:33:05.047Z,6.30
2019-01-10T09:34:05.055Z,6.90
2019-01-10T09:35:05.047Z,6.90
2019-01-10T09:36:05.012Z,7.00
2019-01-10T09:37:05.011Z,6.80
2019-01-10T09:38:05.141Z,6.80
2019-01-10T09:39:04.966Z,7.00
2019-01-10T09:40:04.992Z,7.30
2019-01-10T09:41:04.955Z,6.70
2019-01-10T09:42:05.183Z,7.20
2019-01-10T09:43:04.927Z,7.30
2019-01-10T09:44:06.052Z,7.30
2019-01-10T09:45:04.937Z,7.00
2019-01-10T09:46:04.895Z,7.50
2019-01-10T09:47:04.900Z,7.00
2019-01-10T09:48:04.885Z,6.50
2019-01-10T09:49:04.897Z,7.00
2019-01-10T09:50:04.871Z,7.20
2019-01-10T09:51:04.896Z,7.20
2019-01-10T09:52:04.908Z,6.90
2019-01-10T09:53:04.843Z,6.90
2019-01-10T09:54:04.825Z,7.60
2019-01-10T09:55:04.793Z,7.30
2019-01-10T09:56:04.859Z,8.20
2019-01-10T09:57:04.815Z,8.20
2019-01-10T09:58:04.905Z,7.70
2019-01-10T09:59:04.801Z,7.90
2019-01-10T10:00:04.749Z,8.50
2019-01-10T10:01:04.755Z,8.20
2019-01-10T10:02:04.726Z,8.60
2019-01-10T10:03:04.765Z,8.50
2019-01-10T10:04:04.740Z,7.80
2019-01-10T10:05:04.738Z,8.20
2019-01-10T10:06:07.996Z,7.40
2019-01-10T10:07:04.669Z,7.50
2019-01-10T10:08:04.667Z,7.60
2019-01-10T10:09:04.683Z,7.90
2019-01-10T10:10:06.630Z,7.90
2019-01-10T10:11:04.729Z,7.60
2019-01-10T10:12:04.731Z,7.90
2019-01-10T10:13:04.725Z,7.70
2019-01-10T10:14:04.732Z,7.10
2019-01-10T10:15:04.728Z,7.50
2019-01-10T10:16:04.764Z,7.20
2019-01-10T10:17:04.561Z,7.10
2019-01-10T10:18:04.558Z,7.80
2019-01-10T10:19:04.677Z,8.00
2019-01-10T10:20:04.547Z,7.50
2019-01-10T10:21:04.531Z,8.10
2019-01-10T10:22:04.706Z,8.40
2019-01-10T10:23:04.501Z,8.60
2019-01-10T10:24:04.500Z,8.20
2019-01-10T10:25:04.530Z,8.40
2019-01-10T10:26:04.466Z,8.40
2019-01-10T10:27:04.503Z,8.40
2019-01-10T10:28:04.489Z,8.20
2019-01-10T10:29:04.440Z,8.10
2019-01-10T10:30:04.464Z,8.20
2019-01-10T10:31:04.455Z,7.80
2019-01-10T10:32:04.416Z,7.30
2019-01-10T10:33:04.455Z,8.20
2019-01-10T10:34:04.403Z,8.00
2019-01-10T10:35:04.424Z,7.70
2019-01-10T10:36:04.402Z,8.20
2019-01-10T10:37:04.388Z,8.50
2019-01-10T10:38:04.391Z,8.00
2019-01-10T10:39:04.339Z,7.10
2019-01-10T10:40:04.324Z,7.00
2019-01-10T10:41:04.344Z,6.80
2019-01-10T10:42:04.308Z,6.60
2019-01-10T10:43:04.441Z,6.90
2019-01-10T10:44:04.323Z,7.30
2019-01-10T10:45:04.266Z,7.10
2019-01-10T10:46:04.268Z,6.60
2019-01-10T10:47:04.283Z,7.20
2019-01-10T10:48:04.293Z,6.70
2019-01-10T10:49:04.309Z,7.10
2019-01-10T10:50:04.218Z,7.20
2019-01-10T10:51:04.203Z,7.70
2019-01-10T10:52:04.370Z,7.20
2019-01-10T10:53:04.336Z,7.30
2019-01-10T10:54:04.196Z,7.90
2019-01-10T10:55:04.161Z,8.00
2019-01-10T10:56:04.239Z,8.10
2019-01-10T10:57:04.140Z,8.20
2019-01-10T10:58:04.151Z,8.40
2019-01-10T10:59:04.228Z,9.10
2019-01-10T11:00:04.179Z,8.30
2019-01-10T11:01:04.100Z,7.50
2019-01-10T11:02:04.119Z,7.20
2019-01-10T11:03:04.246Z,7.80
2019-01-10T11:04:04.108Z,7.30
2019-01-10T11:05:04.079Z,7.30
2019-01-10T11:06:04.052Z,7.00
2019-01-10T11:07:04.188Z,7.30
2019-01-10T11:08:04.041Z,6.90
2019-01-10T11:09:09.110Z,6.60
2019-01-10T11:10:05.029Z,7.00
2019-01-10T11:11:04.135Z,6.50
2019-01-10T11:12:03.987Z,6.50
2019-01-10T11:13:03.975Z,6.20
2019-01-10T11:14:04.236Z,6.90
2019-01-10T11:15:04.172Z,6.40
2019-01-10T11:16:10.490Z,7.00
2019-01-10T11:17:05.001Z,6.80
2019-01-10T11:18:03.974Z,6.70
2019-01-10T11:19:03.918Z,6.80
2019-01-10T11:20:03.916Z,6.80
2019-01-10T11:21:03.997Z,7.20
2019-01-10T11:22:03.894Z,7.10
2019-01-10T11:23:10.429Z,6.70
2019-01-10T11:24:04.894Z,6.40
2019-01-10T11:25:03.868Z,6.30
2019-01-10T11:26:03.864Z,6.40
2019-01-10T11:27:03.880Z,6.40
2019-01-10T11:28:03.837Z,6.50
2019-01-10T11:29:03.812Z,6.30
2019-01-10T11:30:03.850Z,6.70
2019-01-10T11:31:03.830Z,6.40
2019-01-10T11:32:12.895Z,6.40
2019-01-10T11:33:04.777Z,6.40
2019-01-10T11:34:03.785Z,5.80
2019-01-10T11:35:03.751Z,5.80
2019-01-10T11:36:03.757Z,6.30
2019-01-10T11:37:03.743Z,6.50
2019-01-10T11:38:03.714Z,6.20
2019-01-10T11:39:03.813Z,6.70
2019-01-10T11:40:03.792Z,6.60
2019-01-10T11:41:03.748Z,6.40
2019-01-10T11:42:03.664Z,6.00
2019-01-10T11:43:03.724Z,6.10
2019-01-10T11:44:03.660Z,6.80
2019-01-10T11:45:03.676Z,6.40
2019-01-10T11:46:03.650Z,6.40
2019-01-10T11:47:03.611Z,6.40
2019-01-10T11:48:03.754Z,6.20
2019-01-10T11:49:03.632Z,6.30
2019-01-10T11:50:03.601Z,5.50
2019-01-10T11:51:03.701Z,5.90
2019-01-10T11:52:03.573Z,6.20
2019-01-10T11:53:03.622Z,5.70
2019-01-10T11:54:03.596Z,5.90
2019-01-10T11:55:03.535Z,5.90
2019-01-10T11:56:03.590Z,5.80
2019-01-10T11:57:03.509Z,6.00
2019-01-10T11:58:03.514Z,5.90
2019-01-10T11:59:03.485Z,5.50
2019-01-10T12:00:03.504Z,5.80
2019-01-10T12:01:03.534Z,5.80
2019-01-10T12:02:03.457Z,6.50
2019-01-10T12:03:03.461Z,6.30
2019-01-10T12:04:03.461Z,6.20
2019-01-10T12:05:03.460Z,6.50
2019-01-10T12:06:03.481Z,5.80
2019-01-10T12:07:03.445Z,6.20
2019-01-10T12:08:03.496Z,6.00
2019-01-10T12:09:03.408Z,6.10
2019-01-10T12:10:03.391Z,5.60
2019-01-10T12:11:03.508Z,5.80
2019-01-10T12:12:03.425Z,5.70
2019-01-10T12:13:03.508Z,6.30
2019-01-10T12:14:03.405Z,5.80
2019-01-10T12:15:03.360Z,6.50
2019-01-10T12:16:03.379Z,6.60
2019-01-10T12:17:03.392Z,6.30
2019-01-10T12:18:03.350Z,6.10
2019-01-10T12:19:03.278Z,5.80
2019-01-10T12:20:03.308Z,5.80
2019-01-10T12:21:03.288Z,6.40
2019-01-10T12:22:03.492Z,6.00
2019-01-10T12:23:03.370Z,6.40
2019-01-10T12:24:03.358Z,5.90
2019-01-10T12:25:03.299Z,5.90
2019-01-10T12:26:03.209Z,6.30
2019-01-10T12:27:03.260Z,6.10
2019-01-10T12:28:03.350Z,6.50
2019-01-10T12:29:03.224Z,6.30
2019-01-10T12:30:03.223Z,6.40
2019-01-10T12:31:03.225Z,7.00
2019-01-10T12:32:03.136Z,6.60
2019-01-10T12:33:03.224Z,6.70
2019-01-10T12:34:03.207Z,7.10
2019-01-10T12:35:03.256Z,7.00
2019-01-10T12:36:03.096Z,6.80
2019-01-10T12:37:03.121Z,7.20
2019-01-10T12:38:03.115Z,7.00
2019-01-10T12:39:03.566Z,6.80
2019-01-10T12:40:03.064Z,6.90
2019-01-10T12:41:03.294Z,7.20
2019-01-10T12:42:03.037Z,6.90
2019-01-10T12:43:03.061Z,6.90
2019-01-10T12:44:03.019Z,6.90
2019-01-10T12:45:03.017Z,6.60
2019-01-10T12:46:03.122Z,6.90
2019-01-10T12:47:02.982Z,6.80
2019-01-10T12:48:02.970Z,6.50
2019-01-10T12:49:03.027Z,6.90
2019-01-10T12:50:02.970Z,6.80
2019-01-10T12:51:02.949Z,6.40
2019-01-10T12:52:02.945Z,6.50
2019-01-10T12:53:02.981Z,6.30
2019-01-10T12:54:02.928Z,6.50
2019-01-10T12:55:02.951Z,6.60
2019-01-10T12:56:02.902Z,6.90
2019-01-10T12:57:02.922Z,6.10
2019-01-10T12:58:02.919Z,6.60
2019-01-10T12:59:02.923Z,6.80
2019-01-10T13:00:02.919Z,6.40
2019-01-10T13:01:02.835Z,6.60
2019-01-10T13:02:02.910Z,7.10
2019-01-10T13:03:02.813Z,6.80
2019-01-10T13:04:02.840Z,7.10
2019-01-10T13:05:02.801Z,7.50
2019-01-10T13:06:02.781Z,7.40
2019-01-10T13:07:02.805Z,7.90
2019-01-10T13:08:03.869Z,8.00
2019-01-10T13:09:02.802Z,7.40
2019-01-10T13:10:02.735Z,7.50
2019-01-10T13:11:02.748Z,7.50
2019-01-10T13:12:02.719Z,7.60
2019-01-10T13:13:02.798Z,7.80
2019-01-10T13:14:05.508Z,8.30
2019-01-10T13:15:02.744Z,8.40
2019-01-10T13:16:02.708Z,8.20
2019-01-10T13:17:02.669Z,9.00
2019-01-10T13:18:02.810Z,8.60